Time;durP1;ratioP1;P1;durP2;ratioP2;P2;SDS_P1;SDS_P2;PMS_P1;PMS_P2;Temp;Humidity;BMP_temperature;BMP_pressure;BME280_temperature;BME280_humidity;BME280_pressure;Samples;Min_cycle;Max_cycle;Signal;HPM_P1;HPM_P2
2023/09/21 00:00:33;;;;;;;18.48;16.58;;;;;;;;;;5032266;28;20090;-64
2023/09/21 00:02:59;;;;;;;20.60;15.90;;;;;;;;;;5031165;28;20033;-64
2023/09/21 00:05:30;;;;;;;18.65;16.75;;;;;;;;;;5032194;28;20025;-64
2023/09/21 00:07:57;;;;;;;17.25;15.25;;;;;;;;;;5032504;28;20069;-64
2023/09/21 00:10:23;;;;;;;17.08;15.38;;;;;;;;;;5032144;28;20033;-64
2023/09/21 00:12:50;;;;;;;19.33;16.95;;;;;;;;;;5030572;28;20032;-64
2023/09/21 00:15:19;;;;;;;22.17;17.13;;;;;;;;;;5031432;28;20109;-64
2023/09/21 00:17:46;;;;;;;18.10;15.45;;;;;;;;;;5031745;28;20028;-64
2023/09/21 00:20:17;;;;;;;19.15;16.70;;;;;;;;;;5030511;28;20518;-64
2023/09/21 00:22:43;;;;;;;17.70;15.90;;;;;;;;;;5031537;28;20482;-64
2023/09/21 00:25:09;;;;;;;17.98;15.85;;;;;;;;;;5030870;28;20026;-64
2023/09/21 00:27:36;;;;;;;18.20;15.98;;;;;;;;;;5028485;28;20390;-64
2023/09/21 00:30:03;;;;;;;19.90;15.80;;;;;;;;;;5031513;28;20498;-64
2023/09/21 00:32:29;;;;;;;18.00;16.05;;;;;;;;;;5029745;28;20075;-63
2023/09/21 00:34:55;;;;;;;21.75;16.65;;;;;;;;;;5031464;28;20095;-64
2023/09/21 00:37:22;;;;;;;17.27;15.45;;;;;;;;;;5030330;28;20473;-64
2023/09/21 00:39:49;;;;;;;16.70;15.00;;;;;;;;;;5030710;28;20387;-63
2023/09/21 00:42:15;;;;;;;18.40;16.45;;;;;;;;;;5030619;28;20033;-64
2023/09/21 00:44:41;;;;;;;17.30;15.25;;;;;;;;;;5031319;28;20044;-64
2023/09/21 00:47:07;;;;;;;17.50;15.57;;;;;;;;;;5029271;28;20483;-64
2023/09/21 00:49:36;;;;;;;18.15;14.43;;;;;;;;;;5031575;28;20056;-64
2023/09/21 00:52:02;;;;;;;15.30;13.77;;;;;;;;;;5030332;28;20510;-64
2023/09/21 00:54:28;;;;;;;15.68;13.98;;;;;;;;;;5031022;28;20036;-64
2023/09/21 00:56:54;;;;;;;15.73;13.57;;;;;;;;;;5028635;28;20033;-64
2023/09/21 00:59:21;;;;;;;14.45;12.63;;;;;;;;;;5013461;28;20105;-64
2023/09/21 01:01:48;;;;;;;15.30;13.77;;;;;;;;;;5040249;28;20042;-64
2023/09/21 01:04:15;;;;;;;14.98;13.30;;;;;;;;;;5038534;28;20107;-63
2023/09/21 01:06:41;;;;;;;19.05;13.02;;;;;;;;;;5032044;28;20040;-64
2023/09/21 01:09:08;;;;;;;15.25;13.32;;;;;;;;;;5029279;28;20045;-63
2023/09/21 01:11:37;;;;;;;16.30;12.68;;;;;;;;;;5029354;28;20037;-64
2023/09/21 01:14:04;;;;;;;14.60;13.10;;;;;;;;;;5029915;28;20025;-64
2023/09/21 01:16:30;;;;;;;15.57;12.70;;;;;;;;;;5025535;28;20056;-64
2023/09/21 01:18:56;;;;;;;16.10;13.18;;;;;;;;;;5029383;28;20349;-63
2023/09/21 01:21:43;;;;;;;14.13;12.63;;;;;;;;;;4971083;28;1706159;-64
2023/09/21 01:24:13;;;;;;;14.13;12.30;;;;;;;;;;5022794;28;20486;-64
2023/09/21 01:26:39;;;;;;;12.77;11.57;;;;;;;;;;5030204;28;20131;-64
2023/09/21 01:29:06;;;;;;;14.60;12.10;;;;;;;;;;5030920;28;20096;-64
2023/09/21 01:31:32;;;;;;;14.38;12.32;;;;;;;;;;5029903;28;20026;-63
2023/09/21 01:34:03;;;;;;;18.70;13.00;;;;;;;;;;5029906;28;20135;-63
2023/09/21 01:36:29;;;;;;;16.48;13.75;;;;;;;;;;5028923;28;20034;-63
2023/09/21 01:38:55;;;;;;;15.10;13.50;;;;;;;;;;5010493;28;20029;-64
2023/09/21 01:41:21;;;;;;;14.65;13.25;;;;;;;;;;5030514;28;20064;-64
2023/09/21 01:43:47;;;;;;;19.02;13.93;;;;;;;;;;5030156;28;20030;-63
2023/09/21 01:46:18;;;;;;;18.10;14.05;;;;;;;;;;5030031;28;20073;-63
2023/09/21 01:48:45;;;;;;;18.05;14.18;;;;;;;;;;5029929;28;20022;-64
2023/09/21 01:51:12;;;;;;;19.20;13.75;;;;;;;;;;5008410;28;20029;-63
2023/09/21 01:53:38;;;;;;;15.02;13.52;;;;;;;;;;5029098;28;20386;-64
2023/09/21 01:56:04;;;;;;;16.05;14.35;;;;;;;;;;5028836;28;20029;-64
2023/09/21 01:58:30;;;;;;;15.00;13.48;;;;;;;;;;5030554;28;20056;-64
2023/09/21 02:00:56;;;;;;;15.80;13.00;;;;;;;;;;5029813;28;20428;-65
2023/09/21 02:03:30;;;;;;;15.90;13.88;;;;;;;;;;5030655;28;20387;-64
2023/09/21 02:05:57;;;;;;;16.33;13.48;;;;;;;;;;5033131;28;20053;-64
2023/09/21 02:08:23;;;;;;;15.75;13.85;;;;;;;;;;5033192;28;20433;-64
2023/09/21 02:10:50;;;;;;;13.93;12.50;;;;;;;;;;5034218;28;20017;-64
2023/09/21 02:13:16;;;;;;;15.43;13.85;;;;;;;;;;5030067;28;20036;-64
2023/09/21 02:15:44;;;;;;;16.52;13.75;;;;;;;;;;5029486;28;20037;-64
2023/09/21 02:18:10;;;;;;;13.82;11.98;;;;;;;;;;5034454;28;20492;-64
2023/09/21 02:20:44;;;;;;;16.77;13.05;;;;;;;;;;5016059;28;20045;-64
2023/09/21 02:23:11;;;;;;;16.85;12.93;;;;;;;;;;5034942;28;20467;-64
2023/09/21 02:25:43;;;;;;;14.45;12.68;;;;;;;;;;5033029;28;20023;-64
2023/09/21 02:28:12;;;;;;;14.65;13.13;;;;;;;;;;5034362;28;20032;-64
2023/09/21 02:30:39;;;;;;;14.75;12.93;;;;;;;;;;5015735;28;20475;-64
2023/09/21 02:33:05;;;;;;;14.23;12.75;;;;;;;;;;5034289;28;20490;-64
2023/09/21 02:35:33;;;;;;;13.82;12.43;;;;;;;;;;5032349;28;20037;-64
2023/09/21 02:37:59;;;;;;;14.43;12.10;;;;;;;;;;5015197;28;20368;-64
2023/09/21 02:40:26;;;;;;;12.68;11.27;;;;;;;;;;5033745;28;20033;-64
2023/09/21 02:42:53;;;;;;;15.05;12.05;;;;;;;;;;5031227;28;20014;-64
2023/09/21 02:45:23;;;;;;;13.90;10.93;;;;;;;;;;5033846;28;20455;-64
2023/09/21 02:47:51;;;;;;;13.55;11.30;;;;;;;;;;5047477;28;20045;-64
2023/09/21 02:50:27;;;;;;;13.95;11.25;;;;;;;;;;5034080;28;20432;-64
2023/09/21 02:53:12;;;;;;;13.68;11.27;;;;;;;;;;5033748;28;20076;-64
2023/09/21 02:55:38;;;;;;;13.40;10.75;;;;;;;;;;5031519;28;20519;-64
2023/09/21 02:58:10;;;;;;;11.68;10.02;;;;;;;;;;5032233;28;20049;-62
2023/09/21 03:00:42;;;;;;;13.55;12.05;;;;;;;;;;5030459;28;20064;-64
2023/09/21 03:03:10;;;;;;;12.85;11.23;;;;;;;;;;5031156;28;20025;-64
2023/09/21 03:05:38;;;;;;;12.50;10.30;;;;;;;;;;5030766;28;20017;-64
2023/09/21 03:08:23;;;;;;;11.30;10.07;;;;;;;;;;5032045;28;20059;-64
2023/09/21 03:10:49;;;;;;;;;;;;;;;;;;5031587;28;20045;-64
2023/09/21 03:13:18;;;;;;;16.65;11.48;;;;;;;;;;5033112;28;19905;-64
2023/09/21 03:15:45;;;;;;;12.90;10.63;;;;;;;;;;5016390;28;20028;-64
2023/09/21 03:18:11;;;;;;;14.43;10.50;;;;;;;;;;5033500;28;20506;-64
2023/09/21 03:21:06;;;;;;;12.88;10.13;;;;;;;;;;5033445;28;20049;-64
2023/09/21 03:23:32;;;;;;;12.10;10.70;;;;;;;;;;5023473;28;20087;-64
2023/09/21 03:25:58;;;;;;;11.13;9.13;;;;;;;;;;5033381;28;20468;-64
2023/09/21 03:28:24;;;;;;;12.65;10.35;;;;;;;;;;5015258;28;20025;-64
2023/09/21 03:30:51;;;;;;;12.65;9.90;;;;;;;;;;5015672;28;20022;-64
2023/09/21 03:33:18;;;;;;;9.85;8.90;;;;;;;;;;5019449;28;20032;-63
2023/09/21 03:35:44;;;;;;;11.50;8.98;;;;;;;;;;5032859;28;20033;-64
2023/09/21 03:38:15;;;;;;;14.68;9.38;;;;;;;;;;5033293;28;20379;-64
2023/09/21 03:40:41;;;;;;;11.63;10.00;;;;;;;;;;5033291;28;20026;-64
2023/09/21 03:43:10;;;;;;;11.10;9.75;;;;;;;;;;5033079;28;20044;-64
2023/09/21 03:45:37;;;;;;;14.20;9.98;;;;;;;;;;5032758;28;20109;-64
2023/09/21 03:48:04;;;;;;;10.85;9.52;;;;;;;;;;5033090;28;20539;-64
2023/09/21 03:50:31;;;;;;;12.20;9.82;;;;;;;;;;5033164;28;20013;-64
2023/09/21 03:52:59;;;;;;;12.90;9.70;;;;;;;;;;5032635;28;20080;-64
2023/09/21 03:55:25;;;;;;;14.45;8.65;;;;;;;;;;5032584;28;20025;-64
2023/09/21 03:57:51;;;;;;;14.48;9.50;;;;;;;;;;5032996;28;20099;-64
2023/09/21 04:00:26;;;;;;;12.18;9.68;;;;;;;;;;5032591;28;20033;-64
2023/09/21 04:02:56;;;;;;;14.02;9.57;;;;;;;;;;5032985;28;20044;-64
2023/09/21 04:05:26;;;;;;;11.18;9.93;;;;;;;;;;5032158;28;20052;-64
2023/09/21 04:07:52;;;;;;;11.68;9.73;;;;;;;;;;5032846;28;20017;-64
2023/09/21 04:10:18;;;;;;;10.50;9.10;;;;;;;;;;5032816;28;20068;-64
2023/09/21 04:12:44;;;;;;;13.25;9.77;;;;;;;;;;5032365;28;20029;-64
2023/09/21 04:15:11;;;;;;;12.13;8.93;;;;;;;;;;5031969;28;20033;-65
2023/09/21 04:17:41;;;;;;;12.95;9.10;;;;;;;;;;5014871;28;20021;-64
2023/09/21 04:20:15;;;;;;;13.90;9.35;;;;;;;;;;5032171;28;20411;-64
2023/09/21 04:22:42;;;;;;;13.52;9.07;;;;;;;;;;5032266;28;20068;-65
2023/09/21 04:25:08;;;;;;;11.88;8.70;;;;;;;;;;5032418;28;20430;-64
2023/09/21 04:27:39;;;;;;;15.55;8.85;;;;;;;;;;5032030;28;20021;-64
2023/09/21 04:30:08;;;;;;;12.27;8.70;;;;;;;;;;5014450;28;20093;-64
2023/09/21 04:32:35;;;;;;;13.43;8.45;;;;;;;;;;5032155;28;20036;-64
2023/09/21 04:35:07;;;;;;;12.07;8.35;;;;;;;;;;5032345;28;20087;-64
2023/09/21 04:37:34;;;;;;;11.52;8.43;;;;;;;;;;5032238;28;20053;-64
2023/09/21 04:40:04;;;;;;;10.30;8.00;;;;;;;;;;5032253;28;20021;-64
2023/09/21 04:42:30;;;;;;;13.77;8.35;;;;;;;;;;5032062;28;20411;-64
2023/09/21 04:44:58;;;;;;;9.32;8.00;;;;;;;;;;5031118;28;20206;-64
2023/09/21 04:47:24;;;;;;;16.92;9.15;;;;;;;;;;5031161;28;20029;-64
2023/09/21 04:49:50;;;;;;;13.60;8.82;;;;;;;;;;5031548;28;20025;-64
2023/09/21 04:52:16;;;;;;;9.93;8.85;;;;;;;;;;5031729;28;20037;-64
2023/09/21 04:54:42;;;;;;;10.63;9.25;;;;;;;;;;5031734;28;20030;-64
2023/09/21 04:57:08;;;;;;;14.27;9.82;;;;;;;;;;5032058;28;20036;-65
2023/09/21 04:59:35;;;;;;;13.20;9.15;;;;;;;;;;5031751;28;20032;-64
2023/09/21 05:02:01;;;;;;;13.73;9.70;;;;;;;;;;5031577;28;20529;-64
2023/09/21 05:04:27;;;;;;;15.65;10.43;;;;;;;;;;5031347;28;20029;-64
2023/09/21 05:06:53;;;;;;;11.77;9.93;;;;;;;;;;5031533;28;20029;-64
2023/09/21 05:09:19;;;;;;;10.60;8.98;;;;;;;;;;5031884;28;20403;-64
2023/09/21 05:11:46;;;;;;;14.07;8.93;;;;;;;;;;5031808;28;20029;-64
2023/09/21 05:14:13;;;;;;;13.65;9.90;;;;;;;;;;5029270;28;20107;-63
2023/09/21 05:16:40;;;;;;;9.80;8.80;;;;;;;;;;5030687;28;20029;-66
2023/09/21 05:19:06;;;;;;;10.57;8.85;;;;;;;;;;5031791;28;20013;-64
2023/09/21 05:21:33;;;;;;;14.48;9.13;;;;;;;;;;5030671;28;20053;-64
2023/09/21 05:23:59;;;;;;;11.85;8.98;;;;;;;;;;5031794;28;20475;-64
2023/09/21 05:26:26;;;;;;;10.35;8.57;;;;;;;;;;5031587;28;20102;-64
2023/09/21 05:28:52;;;;;;;13.02;9.25;;;;;;;;;;5031529;28;20036;-64
2023/09/21 05:31:18;;;;;;;9.43;7.68;;;;;;;;;;5030373;28;20021;-64
2023/09/21 05:33:44;;;;;;;14.07;9.25;;;;;;;;;;5031019;28;20026;-64
2023/09/21 05:36:10;;;;;;;10.27;8.45;;;;;;;;;;5031214;28;21577;-64
2023/09/21 05:38:37;;;;;;;16.50;8.68;;;;;;;;;;5031938;28;20076;-64
2023/09/21 05:41:04;;;;;;;12.18;8.13;;;;;;;;;;5034815;28;20037;-64
2023/09/21 05:43:30;;;;;;;11.05;7.93;;;;;;;;;;5035212;28;20494;-64
2023/09/21 05:45:56;;;;;;;8.85;7.97;;;;;;;;;;5035187;28;20032;-63
2023/09/21 05:48:22;;;;;;;13.27;7.75;;;;;;;;;;5034915;28;20033;-63
2023/09/21 05:50:49;;;;;;;8.98;8.00;;;;;;;;;;5034961;28;20021;-63
2023/09/21 05:53:15;;;;;;;10.98;8.32;;;;;;;;;;5034946;28;20480;-63
2023/09/21 05:55:43;;;;;;;9.63;8.18;;;;;;;;;;5035303;28;20057;-63
2023/09/21 05:58:10;;;;;;;8.52;7.65;;;;;;;;;;5034927;28;20040;-63
2023/09/21 06:00:36;;;;;;;8.95;8.05;;;;;;;;;;5035199;28;20435;-63
2023/09/21 06:03:02;;;;;;;11.38;7.75;;;;;;;;;;5034408;28;20140;-63
2023/09/21 06:05:29;;;;;;;13.00;8.38;;;;;;;;;;5034691;28;20083;-56
2023/09/21 06:07:55;;;;;;;12.35;8.27;;;;;;;;;;5034797;28;20024;-63
2023/09/21 06:10:22;;;;;;;14.77;7.55;;;;;;;;;;5034875;28;20045;-63
2023/09/21 06:12:48;;;;;;;11.75;8.25;;;;;;;;;;5035112;28;20056;-63
2023/09/21 06:15:15;;;;;;;15.80;9.15;;;;;;;;;;5031645;28;20104;-64
2023/09/21 06:17:41;;;;;;;10.95;8.38;;;;;;;;;;5034817;28;20021;-64
2023/09/21 06:20:07;;;;;;;12.80;8.38;;;;;;;;;;5016792;28;20056;-63
2023/09/21 06:22:33;;;;;;;12.00;8.85;;;;;;;;;;5021031;28;20032;-63
2023/09/21 06:25:02;;;;;;;8.88;7.97;;;;;;;;;;5016660;28;20028;-63
2023/09/21 06:27:30;;;;;;;12.30;9.77;;;;;;;;;;5034080;28;20021;-63
2023/09/21 06:29:56;;;;;;;10.38;8.40;;;;;;;;;;5034539;28;20030;-63
2023/09/21 06:32:22;;;;;;;10.80;8.20;;;;;;;;;;5034332;28;20025;-63
2023/09/21 06:34:48;;;;;;;12.73;8.23;;;;;;;;;;5034723;28;20379;-63
2023/09/21 06:37:15;;;;;;;11.23;9.23;;;;;;;;;;5034279;28;20026;-63
2023/09/21 06:39:41;;;;;;;13.20;9.15;;;;;;;;;;5030714;28;20028;-63
2023/09/21 06:42:07;;;;;;;11.68;8.75;;;;;;;;;;5026773;28;20069;-62
2023/09/21 06:44:33;;;;;;;12.75;9.23;;;;;;;;;;5033950;28;20028;-54
2023/09/21 06:46:59;;;;;;;13.98;9.38;;;;;;;;;;5016268;28;20036;-58
2023/09/21 06:49:26;;;;;;;12.88;9.73;;;;;;;;;;5033429;28;20037;-59
2023/09/21 06:51:55;;;;;;;13.45;9.30;;;;;;;;;;5033714;28;20091;-59
2023/09/21 06:54:23;;;;;;;13.38;10.13;;;;;;;;;;5034018;28;20025;-59
2023/09/21 06:56:49;;;;;;;12.38;9.73;;;;;;;;;;5031537;28;20171;-58
2023/09/21 06:59:15;;;;;;;12.70;10.30;;;;;;;;;;5033393;28;20057;-58
2023/09/21 07:01:41;;;;;;;11.70;9.90;;;;;;;;;;5029577;28;20495;-60
2023/09/21 07:04:07;;;;;;;16.20;10.77;;;;;;;;;;5044665;28;20049;-59
2023/09/21 07:06:34;;;;;;;13.48;11.52;;;;;;;;;;5032151;28;20098;-58
2023/09/21 07:09:02;;;;;;;17.42;12.00;;;;;;;;;;5031660;28;20018;-58
2023/09/21 07:11:28;;;;;;;16.90;11.48;;;;;;;;;;5032386;28;20187;-59
2023/09/21 07:13:54;;;;;;;16.17;10.73;;;;;;;;;;5029926;28;20530;-68
2023/09/21 07:16:21;;;;;;;12.20;9.93;;;;;;;;;;5034083;28;20033;-68
2023/09/21 07:18:48;;;;;;;13.57;10.32;;;;;;;;;;5025481;28;20022;-68
2023/09/21 07:21:14;;;;;;;12.60;11.05;;;;;;;;;;5031250;28;20053;-66
2023/09/21 07:23:40;;;;;;;15.57;11.18;;;;;;;;;;5033084;28;20081;-63
2023/09/21 07:26:08;;;;;;;12.98;10.27;;;;;;;;;;5048587;28;20033;-67
2023/09/21 07:28:34;;;;;;;13.75;11.00;;;;;;;;;;5032222;28;20021;-66
2023/09/21 07:31:01;;;;;;;12.95;11.65;;;;;;;;;;5033124;28;20439;-64
2023/09/21 07:33:30;;;;;;;16.98;10.90;;;;;;;;;;5033209;28;20048;-61
2023/09/21 07:35:56;;;;;;;16.17;11.43;;;;;;;;;;5032999;28;20108;-64
2023/09/21 07:38:23;;;;;;;14.75;10.57;;;;;;;;;;5025516;28;20460;-64
2023/09/21 07:40:49;;;;;;;15.38;11.52;;;;;;;;;;5029808;28;20399;-63
2023/09/21 07:43:16;;;;;;;14.13;10.88;;;;;;;;;;5033035;28;20057;-65
2023/09/21 07:45:42;;;;;;;16.67;12.68;;;;;;;;;;5013879;28;20021;-65
2023/09/21 07:48:08;;;;;;;18.17;13.27;;;;;;;;;;5032189;28;20399;-65
2023/09/21 07:50:35;;;;;;;18.00;13.77;;;;;;;;;;5032638;28;20025;-65
2023/09/21 07:53:03;;;;;;;15.52;13.00;;;;;;;;;;5032619;28;20104;-69
2023/09/21 07:55:30;;;;;;;15.98;12.30;;;;;;;;;;5031559;28;20040;-67
2023/09/21 07:57:56;;;;;;;18.90;13.23;;;;;;;;;;5032055;28;20140;-71
2023/09/21 08:00:22;;;;;;;16.52;12.73;;;;;;;;;;5028242;28;20379;-58
2023/09/21 08:02:49;;;;;;;19.85;12.90;;;;;;;;;;5006592;28;20034;-73
2023/09/21 08:05:15;;;;;;;19.70;12.80;;;;;;;;;;5033609;28;20025;-67
2023/09/21 08:07:41;;;;;;;16.40;13.30;;;;;;;;;;5047246;28;20466;-62
2023/09/21 08:10:10;;;;;;;16.63;12.52;;;;;;;;;;5032255;28;20039;-78
2023/09/21 08:12:38;;;;;;;15.25;12.70;;;;;;;;;;5014268;28;20033;-65
2023/09/21 08:15:06;;;;;;;14.55;12.18;;;;;;;;;;5030819;28;20524;-62
2023/09/21 08:17:32;;;;;;;15.52;13.20;;;;;;;;;;5030630;28;20474;-67
2023/09/21 08:19:58;;;;;;;17.02;13.27;;;;;;;;;;5031327;28;20135;-66
2023/09/21 08:25:27;;;;;;;15.57;13.80;;;;;;;;;;5024642;28;20048;-61
2023/09/21 08:27:54;;;;;;;18.02;13.82;;;;;;;;;;5028965;28;20079;-59
2023/09/21 08:30:20;;;;;;;15.00;12.25;;;;;;;;;;5031460;28;20052;-64
2023/09/21 08:32:46;;;;;;;16.90;13.10;;;;;;;;;;5029047;28;20025;-60
2023/09/21 08:35:12;;;;;;;15.02;12.63;;;39.70;99.90;;;;;;5014129;28;20364;-61
2023/09/21 08:37:38;;;;;;;17.48;12.15;;;38.50;99.90;;;;;;5030352;28;20032;-60
2023/09/21 08:40:06;;;;;;;19.33;12.93;;;38.30;99.90;;;;;;5042213;28;20116;-62
2023/09/21 08:42:35;;;;;;;14.52;11.77;;;38.30;99.90;;;;;;5027397;28;20033;-64
2023/09/21 08:45:03;;;;;;;17.08;12.07;;;38.30;99.90;;;;;;5030514;28;20103;-62
2023/09/21 08:47:30;;;;;;;14.95;11.00;;;38.30;99.90;;;;;;5013025;28;20455;-61
2023/09/21 08:49:57;;;;;;;12.70;11.40;;;38.40;99.90;;;;;;5030076;28;20434;-62
2023/09/21 08:52:25;;;;;;;15.15;12.15;;;38.30;99.90;;;;;;5013048;28;20025;-65
2023/09/21 08:54:51;;;;;;;15.85;11.02;;;38.40;99.90;;;;;;5030079;28;20022;-63
2023/09/21 08:57:17;;;;;;;15.20;10.45;;;38.40;99.90;;;;;;5030722;28;20403;-64
2023/09/21 08:59:44;;;;;;;14.63;10.48;;;;;;;;;;5030313;28;20033;-68
2023/09/21 09:02:12;;;;;;;17.30;10.50;;;;;;;;;;5026469;28;20044;-63
2023/09/21 09:04:39;;;;;;;15.15;10.82;;;;;;;;;;5030133;28;20056;-64
2023/09/21 09:07:05;;;;;;;13.05;10.60;;;;;;;;;;5029642;28;20028;-61
2023/09/21 09:09:31;;;;;;;19.13;10.18;;;;;;;;;;5023127;28;20387;-69
2023/09/21 09:11:57;;;;;;;15.05;10.38;;;;;;;;;;5029787;28;20030;-67
2023/09/21 09:14:23;;;;;;;13.23;10.38;;;;;;;;;;5034035;28;20096;-59
2023/09/21 09:16:49;;;;;;;11.80;9.50;;;;;;;;;;5034898;28;20073;-60
2023/09/21 09:19:16;;;;;;;12.90;9.23;;;;;;;;;;5034937;28;20100;-59
2023/09/21 09:21:42;;;;;;;13.43;9.13;;;;;;;;;;5048585;28;20049;-58
2023/09/21 09:24:11;;;;;;;12.52;8.45;;;;;;;;;;5034412;28;20024;-64
2023/09/21 09:26:38;;;;;;;13.50;9.50;;;;;;;;;;5034483;28;20475;-71
2023/09/21 09:29:04;;;;;;;13.18;8.68;;;;;;;;;;5017408;28;20022;-67
2023/09/21 09:31:30;;;;;;;12.35;8.73;;;;;;;;;;5034005;28;20033;-67
2023/09/21 09:33:57;;;;;;;10.30;9.20;;;;;;;;;;5034863;28;20108;-70
2023/09/21 09:36:24;;;;;;;9.80;8.75;;;;;;;;;;5034888;28;20370;-72
2023/09/21 09:38:52;;;;;;;13.15;9.27;;;;;;;;;;5033267;28;20030;-69
2023/09/21 09:44:23;;;;;;;10.20;7.22;;;;;;;;;;5023253;28;20091;-64
2023/09/21 09:46:49;;;;;;;9.90;7.55;;;;;;;;;;5031876;28;20036;-61
2023/09/21 09:49:18;;;;;;;10.70;8.43;;;;;;;;;;5034552;28;20021;-62
2023/09/21 09:51:45;;;;;;;9.65;7.40;;;;;;;;;;5035386;28;20112;-66
2023/09/21 09:54:16;;;;;;;13.00;8.43;;;;;;;;;;5034968;28;20032;-73
2023/09/21 09:56:42;;;;;;;11.38;7.40;;;;;;;;;;5032312;28;20110;-67
2023/09/21 09:59:12;;;;;;;12.85;8.00;;;;;;;;;;5016228;28;20435;-66
2023/09/21 10:01:39;;;;;;;12.95;8.45;;;;;;;;;;5030830;28;20087;-60
2023/09/21 10:04:08;;;;;;;9.98;8.15;;;;;;;;;;5035001;28;20112;-60
2023/09/21 10:06:36;;;;;;;13.07;9.90;;;;;;;;;;5033929;28;20072;-59
2023/09/21 10:09:10;;;;;;;10.23;8.13;;;;;;;;;;5034918;28;20029;-61
2023/09/21 10:11:38;;;;;;;12.35;8.50;;;;;;;;;;5036754;28;20021;-58
2023/09/21 10:14:04;;;;;;;10.27;8.43;;;;;;;;;;5035813;28;20284;-58
2023/09/21 10:16:31;;;;;;;13.27;8.50;;;;;;;;;;5033666;28;20029;-52
2023/09/21 10:19:00;;;;;;;15.60;9.32;;;;;;;;;;5030961;28;20836;-57
2023/09/21 10:21:31;;;;;;;15.38;8.82;;;;;;;;;;5033679;28;20045;-58
2023/09/21 10:24:18;;;;;;;11.63;7.80;;;;;;;;;;5038250;28;20029;-59
2023/09/21 10:26:53;;;;;;;12.30;9.10;;;;;;;;;;5033351;28;20036;-60
2023/09/21 10:29:30;;;;;;;11.25;9.82;;;;;;;;;;5035994;28;20083;-60
2023/09/21 10:31:57;;;;;;;12.95;10.63;;;;;;;;;;5050345;28;20487;-60
2023/09/21 10:34:26;;;;;;;12.75;9.07;;;;;;;;;;5034110;28;20574;-59
2023/09/21 10:36:53;;;;;;;12.13;9.38;;;;;;;;;;5029669;28;20112;-59
2023/09/21 10:39:29;;;;;;;12.20;10.90;;;;;;;;;;5033576;28;20018;-60
2023/09/21 10:42:05;;;;;;;11.00;9.63;;;;;;;;;;5036931;28;20033;-59
2023/09/21 10:44:51;;;;;;;11.95;9.38;;;;;;;;;;5029555;28;20029;-60
2023/09/21 10:47:17;;;;;;;15.82;10.90;;;;;;;;;;5025754;28;20017;-60
2023/09/21 10:49:44;;;;;;;11.75;9.05;;;;;;;;;;5033155;28;20415;-59
2023/09/21 10:52:10;;;;;;;10.38;9.13;;;;;;;;;;5032654;28;20021;-60
2023/09/21 10:54:37;;;;;;;14.13;10.07;;;;;;;;;;5030944;28;20054;-59
2023/09/21 10:57:04;;;;;;;11.93;9.63;;;;;;;;;;5034406;28;20049;-60
2023/09/21 10:59:30;;;;;;;12.23;9.45;;;;;;;;;;5029458;28;20063;-60
2023/09/21 11:01:56;;;;;;;13.50;9.93;;;;;;;;;;5032501;28;20042;-60
2023/09/21 11:04:23;;;;;;;9.52;8.18;;;;;;;;;;5035616;28;20807;-59
2023/09/21 11:06:49;;;;;;;12.00;8.80;;;;;;;;;;5033676;28;20029;-60
2023/09/21 11:09:17;;;;;;;10.05;8.63;;;;;;;;;;5032707;28;20021;-60
2023/09/21 11:11:44;;;;;;;10.60;9.30;;;;;;;;;;5033265;28;20042;-60
2023/09/21 11:14:10;;;;;;;9.93;7.95;;;;;;;;;;5033148;28;20049;-60
2023/09/21 11:16:36;;;;;;;10.38;7.53;;;;;;;;;;5032434;28;20064;-60
2023/09/21 11:19:05;;;;;;;11.43;7.60;;;;;;;;;;5024362;28;20477;-60
2023/09/21 11:21:31;;;;;;;10.82;7.53;;;;;;;;;;5014472;28;20041;-60
2023/09/21 11:23:58;;;;;;;10.65;6.65;;;;;;;;;;5030816;28;20028;-60
2023/09/21 11:26:27;;;;;;;12.95;8.63;;;;;;;;;;5014697;28;20069;-60
2023/09/21 11:28:59;;;;;;;11.48;7.00;;;;;;;;;;5030166;28;20029;-60
2023/09/21 11:31:28;;;;;;;11.98;6.30;;;;;;;;;;5014402;28;20030;-58
2023/09/21 11:33:54;;;;;;;12.38;6.85;;;;;;;;;;5025846;28;20029;-52
2023/09/21 11:36:21;;;;;;;10.13;7.25;;;;;;;;;;5031340;28;20470;-53
2023/09/21 11:38:47;;;;;;;9.88;6.72;;;;;;;;;;5031704;28;20033;-51
2023/09/21 11:41:14;;;;;;;9.35;5.90;;;;;;;;;;5032615;28;20041;-51
2023/09/21 11:43:42;;;;;;;7.35;5.57;;;;;;;;;;5032160;28;20446;-54
2023/09/21 11:46:08;;;;;;;8.77;6.35;;;;;;;;;;5032451;28;20022;-63
2023/09/21 11:48:34;;;;;;;11.98;7.30;;;;;;;;;;5030324;28;20108;-62
2023/09/21 11:51:04;;;;;;;12.00;8.82;;;;;;;;;;5030359;28;20044;-61
2023/09/21 11:53:31;;;;;;;10.98;7.50;;;;;;;;;;5031990;28;20452;-62
2023/09/21 11:55:57;;;;;;;9.30;6.93;;;;;;;;;;5033705;28;20372;-65
2023/09/21 11:58:23;;;;;;;11.32;7.00;;;;;;;;;;5032630;28;20017;-65
2023/09/21 12:01:15;;;;;;;8.52;7.72;;;;;;;;;;5006348;28;20041;-64
2023/09/21 12:03:38;;;;;;;10.90;7.35;;;;;;;;;;5025601;28;20029;-61
2023/09/21 12:06:04;;;;;;;10.90;8.70;;;;;;;;;;5031466;28;20036;-62
2023/09/21 12:08:31;;;;;;;10.40;8.25;;;;;;;;;;5031190;28;20029;-61
2023/09/21 12:10:57;;;;;;;10.63;8.32;;;;;;;;;;5028826;28;20029;-60
2023/09/21 12:13:23;;;;;;;10.30;8.20;;;;;;;;;;5032055;28;20063;-59
2023/09/21 12:15:55;;;;;;;10.38;7.15;;;;;;;;;;5047122;28;20029;-57
2023/09/21 12:18:21;;;;;;;14.27;7.78;;;;;;;;;;5031299;28;20013;-58
2023/09/21 12:20:51;;;;;;;9.77;6.85;;;;;;;;;;5030942;28;20053;-56
2023/09/21 12:23:18;;;;;;;8.25;7.45;;;;;;;;;;5030585;28;20029;-51
2023/09/21 12:25:45;;;;;;;8.45;6.47;;;;;;;;;;5038445;28;20371;-56
2023/09/21 12:28:11;;;;;;;9.52;6.78;;;;;;;;;;5034778;28;20079;-60
2023/09/21 12:30:38;;;;;;;9.77;7.03;;;;;;;;;;5024495;28;20032;-59
2023/09/21 12:33:06;;;;;;;8.43;6.20;;;;;;;;;;5031399;28;20052;-56
2023/09/21 12:35:32;;;;;;;9.30;7.18;;;;;;;;;;5031551;28;20032;-55
2023/09/21 12:37:58;;;;;;;12.57;8.23;;;;;;;;;;5028964;28;20029;-60
2023/09/21 12:40:24;;;;;;;11.40;7.80;;;;;;;;;;5029802;28;20451;-58
2023/09/21 12:42:52;;;;;;;10.32;7.00;;;;;;;;;;5029661;28;20536;-58
2023/09/21 12:45:18;;;;;;;11.18;6.25;;;;;;;;;;5031854;28;20067;-58
2023/09/21 12:47:44;;;;;;;11.48;6.82;;;;;;;;;;5031487;28;20051;-58
2023/09/21 12:50:12;;;;;;;13.52;8.00;;;;;;;;;;5033008;28;20052;-57
2023/09/21 12:52:42;;;;;;;8.65;7.10;;;;;;;;;;5031637;28;20076;-56
2023/09/21 12:55:12;;;;;;;10.35;7.57;;;;;;;;;;5031561;28;20017;-58
2023/09/21 12:57:40;;;;;;;9.70;8.20;;;;;;;;;;5027848;28;20025;-59
2023/09/21 13:00:11;;;;;;;12.35;8.57;;;;;;;;;;5030614;28;20143;-66
2023/09/21 13:02:38;;;;;;;11.48;8.55;;;;;;;;;;5040404;28;20029;-64
2023/09/21 13:05:04;;;;;;;13.57;8.40;;;;;;;;;;5032240;28;20521;-67
2023/09/21 13:07:30;;;;;;;12.13;7.68;;;;;;;;;;5033214;28;20013;-65
2023/09/21 13:09:57;;;;;;;10.82;8.10;;;;;;;;;;5014052;28;20033;-64
2023/09/21 13:12:23;;;;;;;10.45;8.27;;;;;;;;;;5032953;28;20033;-65
2023/09/21 13:14:49;;;;;;;8.73;7.40;;;;;;;;;;5032707;28;20135;-64
2023/09/21 13:17:16;;;;;;;12.00;7.50;;;;;;;;;;5031513;28;20151;-65
2023/09/21 13:19:42;;;;;;;12.60;8.07;;;;;;;;;;5026453;28;20625;-64
2023/09/21 13:22:08;;;;;;;14.55;10.50;;;;;;;;;;5031734;28;20037;-59
2023/09/21 13:24:35;;;;;;;10.80;9.70;;;;;;;;;;5030263;28;20032;-59
2023/09/21 13:27:03;;;;;;;15.65;10.68;;;;;;;;;;5031119;28;20030;-59
2023/09/21 13:29:30;;;;;;;18.63;11.50;;;;;;;;;;5025977;28;20067;-59
2023/09/21 13:31:56;;;;;;;20.23;13.93;;;;;;;;;;5030193;28;20113;-60
2023/09/21 13:34:22;;;;;;;16.92;11.73;;;;;;;;;;5031508;28;20079;-60
2023/09/21 13:36:49;;;;;;;16.77;11.52;;;;;;;;;;5033037;28;20495;-58
2023/09/21 13:39:18;;;;;;;22.40;13.40;;;;;;;;;;5029392;28;20468;-61
2023/09/21 13:41:45;;;;;;;16.50;11.98;;;;;;;;;;5028820;28;20051;-64
2023/09/21 13:44:11;;;;;;;22.30;15.43;;;;;;;;;;5029493;28;20033;-64
2023/09/21 13:46:37;;;;;;;22.48;15.95;;;;;;;;;;5031033;28;20113;-69
2023/09/21 13:49:03;;;;;;;22.40;17.52;;;;;;;;;;5030612;28;20037;-63
2023/09/21 13:51:29;;;;;;;26.85;19.85;;;;;;;;;;5030854;28;20021;-64
2023/09/21 13:53:55;;;;;;;25.38;19.35;;;;;;;;;;5028866;28;20104;-64
2023/09/21 13:56:22;;;;;;;30.83;22.38;;;;;;;;;;5030401;28;20041;-64
2023/09/21 13:58:48;;;;;;;33.20;22.17;;;;;;;;;;5024588;28;20108;-61
2023/09/21 14:01:14;;;;;;;26.48;19.85;;;;;;;;;;5030852;28;20052;-48
2023/09/21 14:03:41;;;;;;;27.27;20.00;;;;;;;;;;5034541;28;20056;-48
2023/09/21 14:06:07;;;;;;;24.40;19.00;;;;;;;;;;5033251;28;20065;-53
2023/09/21 14:08:33;;;;;;;22.52;18.10;;;;;;;;;;5034416;28;20049;-54
2023/09/21 14:10:59;;;;;;;23.60;16.45;;;;;;;;;;5027152;28;20428;-60
2023/09/21 14:13:25;;;;;;;25.30;17.75;;;;;;;;;;5009654;28;20538;-59
2023/09/21 14:15:51;;;;;;;25.73;16.48;;;;;;;;;;5033269;28;20120;-60
2023/09/21 14:18:17;;;;;;;18.63;14.02;;;;;;;;;;5011738;28;20021;-59
2023/09/21 14:20:43;;;;;;;20.17;12.88;;;;;;;;;;5030769;28;20054;-59
2023/09/21 14:23:09;;;;;;;19.42;13.90;;;;;;;;;;5035927;28;20365;-58
2023/09/21 14:25:35;;;;;;;20.83;15.63;;;;;;;;;;5032731;28;20027;-58
2023/09/21 14:28:01;;;;;;;17.05;13.93;;;;;;;;;;5032532;28;20387;-58